METAR Data
IDs: Format: Raw Decoded Include TAF

Data at: 0040 UTC 01 Mar 2021

KXNX 010035Z AUTO 00000KT 10SM FEW021 SCT037 BKN048 20/19 A2985 RMK A01